sensor_id;sensor_type;location;lat;lon;timestamp;P1;durP1;ratioP1;P2;durP2;ratioP2
20597;SDS011;10457;48.770;11.446;2023-02-23T00:01:51;21.93;;;15.43;;
20597;SDS011;10457;48.770;11.446;2023-02-23T00:07:14;20.53;;;14.30;;
20597;SDS011;10457;48.770;11.446;2023-02-23T00:12:38;23.83;;;14.93;;
20597;SDS011;10457;48.770;11.446;2023-02-23T00:18:01;22.00;;;14.03;;
20597;SDS011;10457;48.770;11.446;2023-02-23T00:23:24;23.00;;;15.70;;
20597;SDS011;10457;48.770;11.446;2023-02-23T00:28:47;21.70;;;13.80;;
20597;SDS011;10457;48.770;11.446;2023-02-23T00:34:10;25.23;;;15.20;;
20597;SDS011;10457;48.770;11.446;2023-02-23T00:39:35;20.50;;;15.17;;
20597;SDS011;10457;48.770;11.446;2023-02-23T00:44:58;21.87;;;13.30;;
20597;SDS011;10457;48.770;11.446;2023-02-23T00:50:26;24.10;;;15.37;;
20597;SDS011;10457;48.770;11.446;2023-02-23T00:55:49;23.90;;;15.27;;
20597;SDS011;10457;48.770;11.446;2023-02-23T01:01:11;24.67;;;15.30;;
20597;SDS011;10457;48.770;11.446;2023-02-23T01:06:35;22.63;;;14.83;;
20597;SDS011;10457;48.770;11.446;2023-02-23T01:12:00;19.40;;;15.07;;
20597;SDS011;10457;48.770;11.446;2023-02-23T01:17:25;22.17;;;14.83;;
20597;SDS011;10457;48.770;11.446;2023-02-23T01:22:49;22.83;;;16.43;;
20597;SDS011;10457;48.770;11.446;2023-02-23T01:28:12;24.57;;;17.53;;
20597;SDS011;10457;48.770;11.446;2023-02-23T01:33:34;26.43;;;16.70;;
20597;SDS011;10457;48.770;11.446;2023-02-23T01:38:55;29.00;;;16.33;;
20597;SDS011;10457;48.770;11.446;2023-02-23T01:50:44;32.53;;;17.07;;
20597;SDS011;10457;48.770;11.446;2023-02-23T01:56:13;31.17;;;17.87;;
20597;SDS011;10457;48.770;11.446;2023-02-23T02:01:41;28.40;;;17.30;;
20597;SDS011;10457;48.770;11.446;2023-02-23T02:07:03;24.73;;;17.93;;
20597;SDS011;10457;48.770;11.446;2023-02-23T02:12:26;23.63;;;16.47;;
20597;SDS011;10457;48.770;11.446;2023-02-23T02:17:50;29.33;;;17.87;;
20597;SDS011;10457;48.770;11.446;2023-02-23T02:23:37;30.07;;;18.77;;
20597;SDS011;10457;48.770;11.446;2023-02-23T02:29:52;29.40;;;18.23;;
20597;SDS011;10457;48.770;11.446;2023-02-23T02:36:07;34.20;;;19.47;;
20597;SDS011;10457;48.770;11.446;2023-02-23T02:42:07;34.90;;;19.80;;
20597;SDS011;10457;48.770;11.446;2023-02-23T02:47:42;29.97;;;18.33;;
20597;SDS011;10457;48.770;11.446;2023-02-23T02:53:10;35.43;;;19.90;;
20597;SDS011;10457;48.770;11.446;2023-02-23T02:58:39;31.10;;;18.97;;
20597;SDS011;10457;48.770;11.446;2023-02-23T03:04:16;33.37;;;19.93;;
20597;SDS011;10457;48.770;11.446;2023-02-23T03:10:02;31.67;;;18.70;;
20597;SDS011;10457;48.770;11.446;2023-02-23T03:15:51;33.57;;;20.27;;
20597;SDS011;10457;48.770;11.446;2023-02-23T03:21:40;27.80;;;20.47;;
20597;SDS011;10457;48.770;11.446;2023-02-23T03:27:30;35.67;;;20.03;;
20597;SDS011;10457;48.770;11.446;2023-02-23T03:33:24;32.53;;;19.00;;
20597;SDS011;10457;48.770;11.446;2023-02-23T03:39:15;30.43;;;18.50;;
20597;SDS011;10457;48.770;11.446;2023-02-23T03:45:03;40.50;;;20.40;;
20597;SDS011;10457;48.770;11.446;2023-02-23T03:50:48;27.87;;;19.00;;
20597;SDS011;10457;48.770;11.446;2023-02-23T03:56:32;29.03;;;19.23;;
20597;SDS011;10457;48.770;11.446;2023-02-23T04:02:16;26.97;;;19.43;;
20597;SDS011;10457;48.770;11.446;2023-02-23T04:07:57;31.30;;;18.70;;
20597;SDS011;10457;48.770;11.446;2023-02-23T04:13:40;33.70;;;20.50;;
20597;SDS011;10457;48.770;11.446;2023-02-23T04:19:05;29.53;;;20.67;;
20597;SDS011;10457;48.770;11.446;2023-02-23T04:24:26;31.87;;;20.70;;
20597;SDS011;10457;48.770;11.446;2023-02-23T04:29:47;45.77;;;23.47;;
20597;SDS011;10457;48.770;11.446;2023-02-23T04:35:11;32.73;;;21.80;;
20597;SDS011;10457;48.770;11.446;2023-02-23T04:40:33;34.93;;;20.83;;
20597;SDS011;10457;48.770;11.446;2023-02-23T04:45:54;33.90;;;20.10;;
20597;SDS011;10457;48.770;11.446;2023-02-23T04:51:17;34.47;;;20.80;;
20597;SDS011;10457;48.770;11.446;2023-02-23T04:56:38;34.93;;;21.30;;
20597;SDS011;10457;48.770;11.446;2023-02-23T05:02:00;36.27;;;19.87;;
20597;SDS011;10457;48.770;11.446;2023-02-23T05:07:23;32.33;;;20.60;;
20597;SDS011;10457;48.770;11.446;2023-02-23T05:12:44;37.37;;;21.70;;
20597;SDS011;10457;48.770;11.446;2023-02-23T05:18:06;37.53;;;20.53;;
20597;SDS011;10457;48.770;11.446;2023-02-23T05:23:30;39.10;;;21.87;;
20597;SDS011;10457;48.770;11.446;2023-02-23T05:28:51;40.53;;;22.63;;
20597;SDS011;10457;48.770;11.446;2023-02-23T05:34:13;36.60;;;21.13;;
20597;SDS011;10457;48.770;11.446;2023-02-23T05:39:36;36.67;;;22.30;;
20597;SDS011;10457;48.770;11.446;2023-02-23T05:44:58;31.80;;;22.83;;
20597;SDS011;10457;48.770;11.446;2023-02-23T05:50:19;34.70;;;21.57;;
20597;SDS011;10457;48.770;11.446;2023-02-23T05:55:42;36.87;;;22.73;;
20597;SDS011;10457;48.770;11.446;2023-02-23T06:01:04;35.63;;;21.20;;
20597;SDS011;10457;48.770;11.446;2023-02-23T06:06:25;40.63;;;23.93;;
20597;SDS011;10457;48.770;11.446;2023-02-23T06:11:48;40.30;;;23.17;;
20597;SDS011;10457;48.770;11.446;2023-02-23T06:17:10;36.27;;;22.87;;
20597;SDS011;10457;48.770;11.446;2023-02-23T06:22:31;36.70;;;24.50;;
20597;SDS011;10457;48.770;11.446;2023-02-23T06:27:54;38.70;;;22.70;;
20597;SDS011;10457;48.770;11.446;2023-02-23T06:33:16;39.13;;;23.60;;
20597;SDS011;10457;48.770;11.446;2023-02-23T06:38:37;35.40;;;22.13;;
20597;SDS011;10457;48.770;11.446;2023-02-23T06:44:00;43.47;;;24.20;;
20597;SDS011;10457;48.770;11.446;2023-02-23T06:49:22;41.00;;;23.67;;
20597;SDS011;10457;48.770;11.446;2023-02-23T06:54:44;38.47;;;24.00;;
20597;SDS011;10457;48.770;11.446;2023-02-23T07:00:08;38.87;;;25.57;;
20597;SDS011;10457;48.770;11.446;2023-02-23T07:05:33;45.37;;;25.97;;
20597;SDS011;10457;48.770;11.446;2023-02-23T07:10:55;39.63;;;26.10;;
20597;SDS011;10457;48.770;11.446;2023-02-23T07:16:18;38.57;;;25.17;;
20597;SDS011;10457;48.770;11.446;2023-02-23T07:21:40;40.07;;;25.37;;
20597;SDS011;10457;48.770;11.446;2023-02-23T07:27:01;40.77;;;24.77;;
20597;SDS011;10457;48.770;11.446;2023-02-23T07:32:24;38.73;;;25.10;;
20597;SDS011;10457;48.770;11.446;2023-02-23T07:37:46;37.70;;;23.03;;
20597;SDS011;10457;48.770;11.446;2023-02-23T07:43:07;39.37;;;23.63;;
20597;SDS011;10457;48.770;11.446;2023-02-23T07:48:30;32.40;;;22.50;;
20597;SDS011;10457;48.770;11.446;2023-02-23T07:53:52;39.20;;;23.57;;
20597;SDS011;10457;48.770;11.446;2023-02-23T07:59:14;30.73;;;20.87;;
20597;SDS011;10457;48.770;11.446;2023-02-23T08:04:37;37.53;;;24.10;;
20597;SDS011;10457;48.770;11.446;2023-02-23T08:10:01;38.03;;;22.90;;
20597;SDS011;10457;48.770;11.446;2023-02-23T08:15:23;40.00;;;22.60;;
20597;SDS011;10457;48.770;11.446;2023-02-23T08:20:46;36.50;;;23.77;;
20597;SDS011;10457;48.770;11.446;2023-02-23T08:26:07;37.50;;;23.40;;
20597;SDS011;10457;48.770;11.446;2023-02-23T08:31:29;36.90;;;24.27;;
20597;SDS011;10457;48.770;11.446;2023-02-23T08:36:52;37.80;;;23.33;;
20597;SDS011;10457;48.770;11.446;2023-02-23T08:42:14;31.57;;;21.03;;
20597;SDS011;10457;48.770;11.446;2023-02-23T08:47:36;36.10;;;21.87;;
20597;SDS011;10457;48.770;11.446;2023-02-23T08:52:59;35.10;;;22.40;;
20597;SDS011;10457;48.770;11.446;2023-02-23T08:58:21;41.50;;;23.53;;
20597;SDS011;10457;48.770;11.446;2023-02-23T09:03:43;39.33;;;22.93;;
20597;SDS011;10457;48.770;11.446;2023-02-23T09:09:06;41.57;;;24.80;;
20597;SDS011;10457;48.770;11.446;2023-02-23T09:14:27;38.17;;;23.33;;
20597;SDS011;10457;48.770;11.446;2023-02-23T09:19:49;37.10;;;23.83;;
20597;SDS011;10457;48.770;11.446;2023-02-23T09:25:12;35.80;;;22.35;;
20597;SDS011;10457;48.770;11.446;2023-02-23T09:30:37;32.05;;;22.13;;
20597;SDS011;10457;48.770;11.446;2023-02-23T09:36:02;37.47;;;22.75;;
20597;SDS011;10457;48.770;11.446;2023-02-23T09:41:36;37.80;;;23.33;;
20597;SDS011;10457;48.770;11.446;2023-02-23T09:47:14;33.05;;;21.75;;
20597;SDS011;10457;48.770;11.446;2023-02-23T09:52:52;37.15;;;22.42;;
20597;SDS011;10457;48.770;11.446;2023-02-23T09:58:21;39.85;;;22.80;;
20597;SDS011;10457;48.770;11.446;2023-02-23T10:03:47;30.48;;;20.05;;
20597;SDS011;10457;48.770;11.446;2023-02-23T10:09:17;37.10;;;22.83;;
20597;SDS011;10457;48.770;11.446;2023-02-23T10:15:03;37.08;;;22.27;;
20597;SDS011;10457;48.770;11.446;2023-02-23T10:20:38;36.05;;;24.30;;
20597;SDS011;10457;48.770;11.446;2023-02-23T10:26:11;41.85;;;22.60;;
20597;SDS011;10457;48.770;11.446;2023-02-23T10:31:40;36.35;;;21.35;;
20597;SDS011;10457;48.770;11.446;2023-02-23T10:37:04;36.03;;;22.75;;
20597;SDS011;10457;48.770;11.446;2023-02-23T10:42:29;45.80;;;29.88;;
20597;SDS011;10457;48.770;11.446;2023-02-23T10:47:54;39.10;;;20.93;;
20597;SDS011;10457;48.770;11.446;2023-02-23T10:53:21;31.20;;;20.92;;
20597;SDS011;10457;48.770;11.446;2023-02-23T10:58:45;32.30;;;21.42;;
20597;SDS011;10457;48.770;11.446;2023-02-23T11:04:15;35.47;;;24.17;;
20597;SDS011;10457;48.770;11.446;2023-02-23T11:09:41;34.15;;;21.00;;
20597;SDS011;10457;48.770;11.446;2023-02-23T11:15:20;38.88;;;26.48;;
20597;SDS011;10457;48.770;11.446;2023-02-23T11:20:49;30.63;;;20.13;;
20597;SDS011;10457;48.770;11.446;2023-02-23T11:26:19;23.83;;;15.68;;
20597;SDS011;10457;48.770;11.446;2023-02-23T11:31:48;26.15;;;17.90;;
20597;SDS011;10457;48.770;11.446;2023-02-23T11:37:19;20.08;;;15.52;;
20597;SDS011;10457;48.770;11.446;2023-02-23T11:42:49;25.83;;;16.27;;
20597;SDS011;10457;48.770;11.446;2023-02-23T11:48:18;22.53;;;18.60;;
20597;SDS011;10457;48.770;11.446;2023-02-23T11:53:44;19.03;;;15.20;;
20597;SDS011;10457;48.770;11.446;2023-02-23T11:59:07;23.33;;;16.30;;
20597;SDS011;10457;48.770;11.446;2023-02-23T12:04:38;27.37;;;17.37;;
20597;SDS011;10457;48.770;11.446;2023-02-23T12:10:10;21.52;;;14.63;;
20597;SDS011;10457;48.770;11.446;2023-02-23T12:15:42;24.98;;;17.13;;
20597;SDS011;10457;48.770;11.446;2023-02-23T12:21:14;24.30;;;15.43;;
20597;SDS011;10457;48.770;11.446;2023-02-23T12:26:45;19.50;;;13.93;;
20597;SDS011;10457;48.770;11.446;2023-02-23T12:32:11;26.75;;;15.55;;
20597;SDS011;10457;48.770;11.446;2023-02-23T12:37:38;28.75;;;19.20;;
20597;SDS011;10457;48.770;11.446;2023-02-23T12:43:04;22.45;;;15.38;;
20597;SDS011;10457;48.770;11.446;2023-02-23T12:48:37;16.45;;;11.88;;
20597;SDS011;10457;48.770;11.446;2023-02-23T12:54:08;15.60;;;11.13;;
20597;SDS011;10457;48.770;11.446;2023-02-23T13:05:48;21.75;;;13.25;;
20597;SDS011;10457;48.770;11.446;2023-02-23T13:11:18;21.48;;;14.80;;
20597;SDS011;10457;48.770;11.446;2023-02-23T13:17:04;22.30;;;12.80;;
20597;SDS011;10457;48.770;11.446;2023-02-23T13:22:44;18.90;;;14.23;;
20597;SDS011;10457;48.770;11.446;2023-02-23T13:28:13;21.75;;;14.52;;
20597;SDS011;10457;48.770;11.446;2023-02-23T13:33:42;25.20;;;17.13;;
20597;SDS011;10457;48.770;11.446;2023-02-23T13:45:19;17.75;;;12.05;;
20597;SDS011;10457;48.770;11.446;2023-02-23T13:50:56;19.50;;;14.57;;
20597;SDS011;10457;48.770;11.446;2023-02-23T13:56:23;17.50;;;11.83;;
20597;SDS011;10457;48.770;11.446;2023-02-23T14:01:48;18.27;;;12.80;;
20597;SDS011;10457;48.770;11.446;2023-02-23T14:07:15;17.07;;;11.77;;
20597;SDS011;10457;48.770;11.446;2023-02-23T14:18:56;14.63;;;10.02;;
20597;SDS011;10457;48.770;11.446;2023-02-23T14:24:31;11.93;;;8.45;;
20597;SDS011;10457;48.770;11.446;2023-02-23T14:30:07;13.60;;;8.18;;
20597;SDS011;10457;48.770;11.446;2023-02-23T14:35:44;9.90;;;7.40;;
20597;SDS011;10457;48.770;11.446;2023-02-23T14:41:09;10.13;;;6.82;;
20597;SDS011;10457;48.770;11.446;2023-02-23T14:46:30;14.75;;;6.65;;
20597;SDS011;10457;48.770;11.446;2023-02-23T14:51:53;10.13;;;7.47;;
20597;SDS011;10457;48.770;11.446;2023-02-23T14:57:20;8.43;;;6.28;;
20597;SDS011;10457;48.770;11.446;2023-02-23T15:02:51;12.15;;;8.07;;
20597;SDS011;10457;48.770;11.446;2023-02-23T15:08:17;11.10;;;7.90;;
20597;SDS011;10457;48.770;11.446;2023-02-23T15:13:46;12.15;;;9.25;;
20597;SDS011;10457;48.770;11.446;2023-02-23T15:19:11;12.30;;;8.50;;
20597;SDS011;10457;48.770;11.446;2023-02-23T15:24:39;32.28;;;21.10;;
20597;SDS011;10457;48.770;11.446;2023-02-23T15:30:18;18.73;;;9.47;;
20597;SDS011;10457;48.770;11.446;2023-02-23T15:35:43;15.30;;;9.53;;
20597;SDS011;10457;48.770;11.446;2023-02-23T15:41:14;14.30;;;10.47;;
20597;SDS011;10457;48.770;11.446;2023-02-23T15:46:45;16.50;;;10.63;;
20597;SDS011;10457;48.770;11.446;2023-02-23T15:52:14;14.70;;;9.87;;
20597;SDS011;10457;48.770;11.446;2023-02-23T15:57:43;13.23;;;10.10;;
20597;SDS011;10457;48.770;11.446;2023-02-23T16:03:20;13.23;;;9.33;;
20597;SDS011;10457;48.770;11.446;2023-02-23T16:08:54;14.37;;;9.20;;
20597;SDS011;10457;48.770;11.446;2023-02-23T16:14:17;14.40;;;10.00;;
20597;SDS011;10457;48.770;11.446;2023-02-23T16:19:42;13.53;;;9.73;;
20597;SDS011;10457;48.770;11.446;2023-02-23T16:25:06;14.27;;;9.57;;
20597;SDS011;10457;48.770;11.446;2023-02-23T16:30:33;69.30;;;40.03;;
20597;SDS011;10457;48.770;11.446;2023-02-23T16:36:07;21.17;;;13.60;;
20597;SDS011;10457;48.770;11.446;2023-02-23T16:41:37;21.77;;;14.60;;
20597;SDS011;10457;48.770;11.446;2023-02-23T16:47:09;18.60;;;13.80;;
20597;SDS011;10457;48.770;11.446;2023-02-23T16:52:49;16.93;;;9.87;;
20597;SDS011;10457;48.770;11.446;2023-02-23T16:58:13;16.93;;;14.17;;
20597;SDS011;10457;48.770;11.446;2023-02-23T17:03:37;24.90;;;15.73;;
20597;SDS011;10457;48.770;11.446;2023-02-23T17:09:01;22.50;;;15.17;;
20597;SDS011;10457;48.770;11.446;2023-02-23T17:14:24;25.23;;;14.13;;
20597;SDS011;10457;48.770;11.446;2023-02-23T17:19:50;27.03;;;18.47;;
20597;SDS011;10457;48.770;11.446;2023-02-23T17:25:13;21.10;;;15.60;;
20597;SDS011;10457;48.770;11.446;2023-02-23T17:30:34;22.67;;;14.10;;
20597;SDS011;10457;48.770;11.446;2023-02-23T17:35:57;17.43;;;12.90;;
20597;SDS011;10457;48.770;11.446;2023-02-23T17:41:21;20.10;;;13.40;;
20597;SDS011;10457;48.770;11.446;2023-02-23T17:46:43;22.27;;;13.23;;
20597;SDS011;10457;48.770;11.446;2023-02-23T17:52:05;17.17;;;12.27;;
20597;SDS011;10457;48.770;11.446;2023-02-23T17:57:28;23.17;;;15.47;;
20597;SDS011;10457;48.770;11.446;2023-02-23T18:02:51;25.00;;;14.87;;
20597;SDS011;10457;48.770;11.446;2023-02-23T18:08:13;22.23;;;14.47;;
20597;SDS011;10457;48.770;11.446;2023-02-23T18:13:39;27.20;;;14.67;;
20597;SDS011;10457;48.770;11.446;2023-02-23T18:19:00;25.67;;;13.33;;
20597;SDS011;10457;48.770;11.446;2023-02-23T18:24:22;23.00;;;13.93;;
20597;SDS011;10457;48.770;11.446;2023-02-23T18:29:45;27.33;;;15.37;;
20597;SDS011;10457;48.770;11.446;2023-02-23T18:35:07;29.10;;;14.33;;
20597;SDS011;10457;48.770;11.446;2023-02-23T18:40:29;19.60;;;13.40;;
20597;SDS011;10457;48.770;11.446;2023-02-23T18:45:52;18.00;;;13.33;;
20597;SDS011;10457;48.770;11.446;2023-02-23T18:51:14;21.20;;;12.27;;
20597;SDS011;10457;48.770;11.446;2023-02-23T18:56:36;24.37;;;15.13;;
20597;SDS011;10457;48.770;11.446;2023-02-23T19:01:59;32.87;;;19.27;;
20597;SDS011;10457;48.770;11.446;2023-02-23T19:07:21;32.30;;;19.70;;
20597;SDS011;10457;48.770;11.446;2023-02-23T19:12:42;27.13;;;17.00;;
20597;SDS011;10457;48.770;11.446;2023-02-23T19:18:05;23.70;;;16.07;;
20597;SDS011;10457;48.770;11.446;2023-02-23T19:23:27;24.23;;;15.80;;
20597;SDS011;10457;48.770;11.446;2023-02-23T19:28:49;23.53;;;14.97;;
20597;SDS011;10457;48.770;11.446;2023-02-23T19:34:12;23.83;;;14.70;;
20597;SDS011;10457;48.770;11.446;2023-02-23T19:39:34;26.40;;;16.47;;
20597;SDS011;10457;48.770;11.446;2023-02-23T19:44:55;23.60;;;18.10;;
20597;SDS011;10457;48.770;11.446;2023-02-23T19:50:19;25.07;;;16.47;;
20597;SDS011;10457;48.770;11.446;2023-02-23T19:55:41;23.60;;;14.43;;
20597;SDS011;10457;48.770;11.446;2023-02-23T20:01:03;22.60;;;16.33;;
20597;SDS011;10457;48.770;11.446;2023-02-23T20:06:28;22.33;;;16.07;;
20597;SDS011;10457;48.770;11.446;2023-02-23T20:11:53;21.87;;;15.43;;
20597;SDS011;10457;48.770;11.446;2023-02-23T20:17:15;22.40;;;14.83;;
20597;SDS011;10457;48.770;11.446;2023-02-23T20:22:38;32.93;;;16.43;;
20597;SDS011;10457;48.770;11.446;2023-02-23T20:28:02;25.13;;;18.30;;
20597;SDS011;10457;48.770;11.446;2023-02-23T20:33:26;24.80;;;16.00;;
20597;SDS011;10457;48.770;11.446;2023-02-23T20:38:49;23.47;;;16.00;;
20597;SDS011;10457;48.770;11.446;2023-02-23T20:44:12;25.73;;;18.30;;
20597;SDS011;10457;48.770;11.446;2023-02-23T20:49:35;26.77;;;18.10;;
20597;SDS011;10457;48.770;11.446;2023-02-23T20:54:59;24.83;;;16.67;;
20597;SDS011;10457;48.770;11.446;2023-02-23T21:00:20;26.83;;;17.60;;
20597;SDS011;10457;48.770;11.446;2023-02-23T21:05:50;28.90;;;18.60;;
20597;SDS011;10457;48.770;11.446;2023-02-23T21:11:14;25.47;;;18.10;;
20597;SDS011;10457;48.770;11.446;2023-02-23T21:16:37;24.63;;;16.57;;
20597;SDS011;10457;48.770;11.446;2023-02-23T21:22:04;28.27;;;16.57;;
20597;SDS011;10457;48.770;11.446;2023-02-23T21:27:31;25.63;;;16.77;;
20597;SDS011;10457;48.770;11.446;2023-02-23T21:32:53;28.50;;;18.03;;
20597;SDS011;10457;48.770;11.446;2023-02-23T21:38:16;30.30;;;19.23;;
20597;SDS011;10457;48.770;11.446;2023-02-23T21:43:39;29.87;;;17.50;;
20597;SDS011;10457;48.770;11.446;2023-02-23T21:49:02;26.47;;;16.77;;
20597;SDS011;10457;48.770;11.446;2023-02-23T21:54:27;26.83;;;16.87;;
20597;SDS011;10457;48.770;11.446;2023-02-23T21:59:50;27.17;;;18.27;;
20597;SDS011;10457;48.770;11.446;2023-02-23T22:05:13;28.97;;;19.03;;
20597;SDS011;10457;48.770;11.446;2023-02-23T22:10:35;31.63;;;18.87;;
20597;SDS011;10457;48.770;11.446;2023-02-23T22:15:58;26.27;;;17.13;;
20597;SDS011;10457;48.770;11.446;2023-02-23T22:21:19;31.37;;;18.80;;
20597;SDS011;10457;48.770;11.446;2023-02-23T22:26:42;28.80;;;18.33;;
20597;SDS011;10457;48.770;11.446;2023-02-23T22:32:09;29.80;;;19.30;;
20597;SDS011;10457;48.770;11.446;2023-02-23T22:37:30;27.93;;;18.67;;
20597;SDS011;10457;48.770;11.446;2023-02-23T22:42:52;37.10;;;19.43;;
20597;SDS011;10457;48.770;11.446;2023-02-23T22:48:15;35.93;;;19.20;;
20597;SDS011;10457;48.770;11.446;2023-02-23T22:53:36;27.93;;;17.90;;
20597;SDS011;10457;48.770;11.446;2023-02-23T22:58:58;24.87;;;17.87;;
20597;SDS011;10457;48.770;11.446;2023-02-23T23:04:25;26.87;;;15.93;;
20597;SDS011;10457;48.770;11.446;2023-02-23T23:09:47;28.43;;;15.50;;
20597;SDS011;10457;48.770;11.446;2023-02-23T23:15:09;26.33;;;16.23;;
20597;SDS011;10457;48.770;11.446;2023-02-23T23:20:38;27.00;;;15.73;;
20597;SDS011;10457;48.770;11.446;2023-02-23T23:26:02;23.43;;;14.83;;
20597;SDS011;10457;48.770;11.446;2023-02-23T23:31:26;24.63;;;14.60;;
20597;SDS011;10457;48.770;11.446;2023-02-23T23:36:51;18.13;;;13.87;;
20597;SDS011;10457;48.770;11.446;2023-02-23T23:42:13;23.43;;;13.17;;
20597;SDS011;10457;48.770;11.446;2023-02-23T23:47:34;23.10;;;14.40;;
20597;SDS011;10457;48.770;11.446;2023-02-23T23:52:57;17.43;;;12.00;;
20597;SDS011;10457;48.770;11.446;2023-02-23T23:58:19;22.13;;;14.10;;
